createdAt,value
2018-11-25T00:00:40.638Z,18.70
2018-11-25T00:01:40.627Z,18.66
2018-11-25T00:02:40.713Z,18.64
2018-11-25T00:03:40.609Z,18.68
2018-11-25T00:04:40.602Z,18.64
2018-11-25T00:05:40.584Z,18.61
2018-11-25T00:06:40.574Z,18.63
2018-11-25T00:07:40.566Z,18.58
2018-11-25T00:08:40.998Z,18.60
2018-11-25T00:09:40.550Z,18.53
2018-11-25T00:10:40.539Z,18.58
2018-11-25T00:11:40.523Z,18.53
2018-11-25T00:12:40.513Z,18.55
2018-11-25T00:13:40.501Z,18.52
2018-11-25T00:14:40.606Z,18.52
2018-11-25T00:15:40.476Z,18.60
2018-11-25T00:16:40.467Z,18.61
2018-11-25T00:17:40.458Z,18.57
2018-11-25T00:18:40.445Z,18.61
2018-11-25T00:19:40.440Z,18.61
2018-11-25T00:20:40.522Z,18.61
2018-11-25T00:21:40.415Z,18.61
2018-11-25T00:22:40.407Z,18.60
2018-11-25T00:23:40.400Z,18.68
2018-11-25T00:24:40.382Z,18.73
2018-11-25T00:25:40.370Z,18.67
2018-11-25T00:26:40.564Z,18.66
2018-11-25T00:27:40.349Z,18.70
2018-11-25T00:28:41.225Z,18.78
2018-11-25T00:29:40.320Z,18.71
2018-11-25T00:30:40.314Z,18.79
2018-11-25T00:31:40.309Z,18.73
2018-11-25T00:32:40.455Z,18.85
2018-11-25T00:33:40.280Z,18.76
2018-11-25T00:34:40.279Z,18.79
2018-11-25T00:35:41.223Z,18.76
2018-11-25T00:36:40.248Z,18.78
2018-11-25T00:37:43.375Z,18.78
2018-11-25T00:38:41.389Z,18.73
2018-11-25T00:39:40.215Z,18.85
2018-11-25T00:40:40.212Z,18.81
2018-11-25T00:41:40.205Z,18.79
2018-11-25T00:42:40.830Z,18.71
2018-11-25T00:43:40.829Z,18.61
2018-11-25T00:44:40.443Z,18.70
2018-11-25T00:45:40.728Z,18.66
2018-11-25T00:46:40.825Z,18.64
2018-11-25T00:47:40.129Z,18.71
2018-11-25T00:48:40.837Z,18.61
2018-11-25T00:49:40.108Z,18.64
2018-11-25T00:50:40.307Z,18.52
2018-11-25T00:51:40.089Z,18.55
2018-11-25T00:52:40.086Z,18.58
2018-11-25T00:53:40.099Z,18.45
2018-11-25T00:54:40.072Z,18.52
2018-11-25T00:55:40.044Z,18.51
2018-11-25T00:56:40.182Z,18.48
2018-11-25T00:57:40.824Z,18.49
2018-11-25T00:58:40.027Z,18.46
2018-11-25T00:59:40.000Z,18.46
2018-11-25T01:00:40.728Z,18.45
2018-11-25T01:01:39.984Z,18.48
2018-11-25T01:02:40.739Z,18.49
2018-11-25T01:03:39.956Z,18.46
2018-11-25T01:04:39.947Z,18.46
2018-11-25T01:05:39.937Z,18.42
2018-11-25T01:06:39.918Z,18.48
2018-11-25T01:07:39.906Z,18.45
2018-11-25T01:08:40.209Z,18.49
2018-11-25T01:09:39.891Z,18.45
2018-11-25T01:10:39.873Z,18.49
2018-11-25T01:11:39.874Z,18.43
2018-11-25T01:12:39.854Z,18.48
2018-11-25T01:13:39.843Z,18.42
2018-11-25T01:14:39.975Z,18.45
2018-11-25T01:15:39.823Z,18.49
2018-11-25T01:16:39.811Z,18.48
2018-11-25T01:17:39.802Z,18.48
2018-11-25T01:18:39.788Z,18.43
2018-11-25T01:19:40.732Z,18.39
2018-11-25T01:20:39.974Z,18.37
2018-11-25T01:21:39.771Z,18.36
2018-11-25T01:22:39.746Z,18.39
2018-11-25T01:23:39.739Z,18.39
2018-11-25T01:24:39.732Z,18.37
2018-11-25T01:25:39.713Z,18.37
2018-11-25T01:26:39.871Z,18.37
2018-11-25T01:27:39.696Z,18.42
2018-11-25T01:28:39.688Z,18.34
2018-11-25T01:29:39.665Z,18.43
2018-11-25T01:30:39.666Z,18.37
2018-11-25T01:31:39.657Z,18.28
2018-11-25T01:32:39.812Z,18.27
2018-11-25T01:33:39.632Z,18.34
2018-11-25T01:34:39.685Z,18.31
2018-11-25T01:35:39.601Z,18.36
2018-11-25T01:36:42.318Z,18.41
2018-11-25T01:37:39.577Z,18.42
2018-11-25T01:38:39.684Z,18.42
2018-11-25T01:39:39.563Z,18.36
2018-11-25T01:40:39.549Z,18.42
2018-11-25T01:41:39.540Z,18.45
2018-11-25T01:42:39.523Z,18.45
2018-11-25T01:43:39.524Z,18.24
2018-11-25T01:44:39.608Z,18.34
2018-11-25T01:45:39.495Z,18.39
2018-11-25T01:46:39.488Z,18.33
2018-11-25T01:47:39.479Z,18.28
2018-11-25T01:48:39.462Z,18.45
2018-11-25T01:49:39.446Z,18.28
2018-11-25T01:50:39.727Z,18.36
2018-11-25T01:51:39.428Z,18.39
2018-11-25T01:52:39.419Z,18.33
2018-11-25T01:53:41.232Z,18.31
2018-11-25T01:54:39.408Z,18.31
2018-11-25T01:55:39.385Z,18.27
2018-11-25T01:56:39.581Z,18.36
2018-11-25T01:57:39.374Z,18.28
2018-11-25T01:58:39.356Z,18.30
2018-11-25T01:59:39.341Z,18.28
2018-11-25T02:00:39.341Z,18.33
2018-11-25T02:01:39.325Z,18.28
2018-11-25T02:02:39.409Z,18.28
2018-11-25T02:03:39.293Z,18.27
2018-11-25T02:04:39.287Z,18.19
2018-11-25T02:05:39.273Z,18.16
2018-11-25T02:06:39.264Z,18.19
2018-11-25T02:07:39.248Z,18.28
2018-11-25T02:08:39.362Z,18.18
2018-11-25T02:09:39.227Z,18.11
2018-11-25T02:10:39.724Z,18.12
2018-11-25T02:11:39.208Z,18.16
2018-11-25T02:12:39.201Z,18.23
2018-11-25T02:13:39.191Z,18.13
2018-11-25T02:14:39.397Z,18.13
2018-11-25T02:15:39.167Z,18.11
2018-11-25T02:16:39.158Z,18.11
2018-11-25T02:17:39.178Z,18.18
2018-11-25T02:18:39.128Z,18.08
2018-11-25T02:19:39.120Z,18.15
2018-11-25T02:20:39.240Z,18.13
2018-11-25T02:21:39.105Z,18.15
2018-11-25T02:22:39.086Z,18.08
2018-11-25T02:23:39.082Z,18.09
2018-11-25T02:24:39.070Z,18.12
2018-11-25T02:25:39.060Z,18.06
2018-11-25T02:26:39.139Z,18.18
2018-11-25T02:27:39.051Z,18.05
2018-11-25T02:28:39.020Z,18.03
2018-11-25T02:37:40.168Z,17.41
2018-11-25T02:38:39.877Z,17.28
2018-11-25T02:39:39.862Z,17.37
2018-11-25T02:40:39.856Z,17.39
2018-11-25T02:41:39.851Z,17.41
2018-11-25T02:42:39.829Z,17.44
2018-11-25T02:43:39.912Z,17.44
2018-11-25T02:44:39.808Z,17.54
2018-11-25T02:45:39.798Z,17.65
2018-11-25T02:46:39.785Z,17.56
2018-11-25T02:47:39.776Z,17.63
2018-11-25T02:48:39.763Z,17.63
2018-11-25T02:49:39.848Z,17.72
2018-11-25T02:50:39.745Z,17.76
2018-11-25T02:51:39.731Z,17.76
2018-11-25T02:52:39.725Z,17.76
2018-11-25T02:53:39.711Z,17.80
2018-11-25T02:54:39.700Z,17.80
2018-11-25T02:55:39.798Z,17.80
2018-11-25T02:56:39.688Z,17.84
2018-11-25T02:57:39.670Z,17.88
2018-11-25T02:58:39.663Z,17.84
2018-11-25T02:59:39.652Z,17.88
2018-11-25T03:00:39.644Z,17.90
2018-11-25T03:01:39.729Z,17.87
2018-11-25T03:02:39.617Z,17.87
2018-11-25T03:03:39.605Z,17.93
2018-11-25T03:04:39.590Z,17.82
2018-11-25T03:05:39.582Z,17.90
2018-11-25T03:06:39.567Z,17.91
2018-11-25T03:07:39.865Z,17.88
2018-11-25T03:08:39.543Z,17.88
2018-11-25T03:09:39.542Z,17.90
2018-11-25T03:10:39.522Z,17.88
2018-11-25T03:11:39.511Z,17.88
2018-11-25T03:12:39.505Z,17.87
2018-11-25T03:13:39.593Z,17.94
2018-11-25T03:14:39.484Z,17.91
2018-11-25T03:15:39.473Z,17.91
2018-11-25T03:16:39.498Z,17.93
2018-11-25T03:17:39.450Z,17.91
2018-11-25T03:18:39.438Z,17.91
2018-11-25T03:19:39.537Z,17.95
2018-11-25T03:20:39.416Z,17.93
2018-11-25T03:21:39.409Z,17.94
2018-11-25T03:22:39.394Z,17.95
2018-11-25T03:23:39.389Z,17.93
2018-11-25T03:24:39.372Z,17.98
2018-11-25T03:25:39.538Z,18.00
2018-11-25T03:26:39.351Z,17.98
2018-11-25T03:27:39.342Z,17.97
2018-11-25T03:28:39.337Z,18.03
2018-11-25T03:29:39.322Z,17.98
2018-11-25T03:30:39.306Z,18.03
2018-11-25T03:31:39.406Z,18.09
2018-11-25T03:32:39.285Z,18.00
2018-11-25T03:33:39.334Z,18.06
2018-11-25T03:34:39.262Z,17.93
2018-11-25T03:35:39.250Z,17.95
2018-11-25T03:36:39.242Z,17.95
2018-11-25T03:37:39.376Z,17.94
2018-11-25T03:38:39.218Z,17.94
2018-11-25T03:39:39.204Z,17.91
2018-11-25T03:40:39.196Z,17.98
2018-11-25T03:41:39.182Z,17.94
2018-11-25T03:42:39.172Z,17.93
2018-11-25T03:43:39.329Z,17.95
2018-11-25T03:44:39.155Z,17.94
2018-11-25T03:45:39.141Z,17.97
2018-11-25T03:46:39.129Z,18.00
2018-11-25T03:47:39.117Z,17.98
2018-11-25T03:48:39.104Z,18.02
2018-11-25T03:49:39.234Z,18.06
2018-11-25T03:50:39.084Z,18.03
2018-11-25T03:51:39.073Z,18.02
2018-11-25T03:52:39.069Z,18.00
2018-11-25T03:53:39.050Z,18.05
2018-11-25T03:54:39.038Z,18.06
2018-11-25T03:55:39.133Z,18.08
2018-11-25T03:56:39.028Z,18.00
2018-11-25T03:57:39.019Z,18.05
2018-11-25T03:58:39.003Z,18.12
2018-11-25T03:59:38.989Z,18.00
2018-11-25T04:00:38.977Z,18.08
2018-11-25T04:01:39.290Z,18.09
2018-11-25T04:02:38.955Z,17.97
2018-11-25T04:03:38.941Z,18.03
2018-11-25T04:04:38.935Z,18.00
2018-11-25T04:05:38.923Z,17.95
2018-11-25T04:06:38.913Z,17.95
2018-11-25T04:07:39.033Z,18.00
2018-11-25T04:08:38.889Z,17.95
2018-11-25T04:09:38.881Z,18.03
2018-11-25T04:10:38.866Z,17.98
2018-11-25T04:11:38.864Z,17.95
2018-11-25T04:12:38.848Z,18.02
2018-11-25T04:13:38.973Z,17.93
2018-11-25T04:14:38.822Z,18.08
2018-11-25T04:15:38.807Z,18.03
2018-11-25T04:16:38.798Z,18.09
2018-11-25T04:17:38.788Z,17.97
2018-11-25T04:18:38.783Z,18.06
2018-11-25T04:19:39.090Z,18.06
2018-11-25T04:20:38.758Z,18.06
2018-11-25T04:21:38.759Z,17.94
2018-11-25T04:22:38.738Z,18.03
2018-11-25T04:23:38.720Z,18.06
2018-11-25T04:24:38.714Z,18.12
2018-11-25T04:25:38.884Z,17.97
2018-11-25T04:26:38.693Z,18.06
2018-11-25T04:27:38.682Z,18.08
2018-11-25T04:28:38.670Z,18.03
2018-11-25T04:29:38.659Z,18.00
2018-11-25T04:30:38.646Z,18.09
2018-11-25T04:31:38.735Z,17.97
2018-11-25T04:32:38.632Z,17.94
2018-11-25T04:33:38.623Z,17.98
2018-11-25T04:34:38.607Z,17.91
2018-11-25T04:35:38.596Z,17.91
2018-11-25T04:36:38.585Z,17.94
2018-11-25T04:37:38.711Z,17.94
2018-11-25T04:38:38.574Z,17.98
2018-11-25T04:39:38.552Z,17.95
2018-11-25T04:40:38.541Z,17.98
2018-11-25T04:41:38.535Z,17.91
2018-11-25T04:42:38.519Z,17.91
2018-11-25T04:43:38.697Z,17.90
2018-11-25T04:44:38.506Z,18.00
2018-11-25T04:45:38.485Z,17.93
2018-11-25T04:46:38.471Z,18.03
2018-11-25T04:47:38.461Z,17.97
2018-11-25T04:48:38.457Z,17.90
2018-11-25T04:49:38.618Z,17.93
2018-11-25T04:50:38.442Z,17.98
2018-11-25T04:51:38.421Z,18.02
2018-11-25T04:52:38.409Z,18.02
2018-11-25T04:53:38.401Z,17.98
2018-11-25T04:54:38.386Z,17.98
2018-11-25T04:55:38.481Z,17.94
2018-11-25T04:56:38.372Z,18.02
2018-11-25T04:57:38.353Z,18.05
2018-11-25T04:58:38.343Z,17.98
2018-11-25T04:59:38.337Z,17.98
2018-11-25T05:00:38.325Z,18.00
2018-11-25T05:01:38.483Z,17.97
2018-11-25T05:02:38.302Z,17.93
2018-11-25T05:03:38.288Z,17.93
2018-11-25T05:04:38.277Z,17.95
2018-11-25T05:05:38.267Z,17.95
2018-11-25T05:06:38.260Z,18.00
2018-11-25T05:07:38.421Z,17.94
2018-11-25T05:08:38.236Z,17.90
2018-11-25T05:09:38.224Z,17.95
2018-11-25T05:10:38.211Z,17.95
2018-11-25T05:11:38.202Z,17.94
2018-11-25T05:12:38.192Z,17.94
2018-11-25T05:13:38.305Z,17.91
2018-11-25T05:14:38.175Z,17.97
2018-11-25T05:15:38.157Z,17.93
2018-11-25T05:16:38.144Z,17.95
2018-11-25T05:17:38.141Z,17.93
2018-11-25T05:18:38.125Z,17.98
2018-11-25T05:19:38.418Z,17.93
2018-11-25T05:20:38.100Z,17.97
2018-11-25T05:21:38.094Z,17.97
2018-11-25T05:22:38.082Z,18.03
2018-11-25T05:23:38.070Z,18.05
2018-11-25T05:24:38.058Z,18.03
2018-11-25T05:25:38.222Z,18.02
2018-11-25T05:26:38.039Z,18.05
2018-11-25T05:27:38.030Z,18.00
2018-11-25T05:28:38.066Z,18.08
2018-11-25T05:29:38.008Z,18.00
2018-11-25T05:30:37.993Z,17.98
2018-11-25T05:31:38.081Z,18.02
2018-11-25T05:32:37.968Z,18.12
2018-11-25T05:33:37.958Z,18.16
2018-11-25T05:34:37.950Z,18.21
2018-11-25T05:35:37.938Z,18.12
2018-11-25T05:36:37.924Z,18.15
2018-11-25T05:37:38.111Z,18.13
2018-11-25T05:38:37.906Z,18.15
2018-11-25T05:39:37.895Z,18.24
2018-11-25T05:40:37.884Z,18.30
2018-11-25T05:41:37.873Z,18.28
2018-11-25T05:42:37.859Z,18.31
2018-11-25T05:43:37.960Z,18.27
2018-11-25T05:44:37.837Z,18.27
2018-11-25T05:45:37.827Z,18.27
2018-11-25T05:46:37.818Z,18.26
2018-11-25T05:47:37.804Z,18.26
2018-11-25T05:48:37.794Z,18.33
2018-11-25T05:49:37.881Z,18.26
2018-11-25T05:50:37.771Z,18.24
2018-11-25T05:51:37.764Z,18.26
2018-11-25T05:52:37.749Z,18.24
2018-11-25T05:53:37.734Z,18.23
2018-11-25T05:54:37.733Z,18.36
2018-11-25T05:55:37.892Z,18.27
2018-11-25T05:56:37.707Z,18.37
2018-11-25T05:57:37.696Z,18.30
2018-11-25T05:58:37.695Z,18.45
2018-11-25T05:59:37.677Z,18.28
2018-11-25T06:00:37.663Z,18.30
2018-11-25T06:01:37.752Z,18.34
2018-11-25T06:02:37.639Z,18.33
2018-11-25T06:03:37.629Z,18.34
2018-11-25T06:04:37.623Z,18.31
2018-11-25T06:05:37.606Z,18.37
2018-11-25T06:06:37.594Z,18.43
2018-11-25T06:07:37.685Z,18.45
2018-11-25T06:08:37.574Z,18.37
2018-11-25T06:09:37.561Z,18.41
2018-11-25T06:10:37.552Z,18.45
2018-11-25T06:11:37.547Z,18.45
2018-11-25T06:12:37.530Z,18.46
2018-11-25T06:13:37.706Z,18.42
2018-11-25T06:14:37.507Z,18.48
2018-11-25T06:15:37.497Z,18.42
2018-11-25T06:16:37.499Z,18.53
2018-11-25T06:17:37.482Z,18.55
2018-11-25T06:18:37.468Z,18.53
2018-11-25T06:19:37.637Z,18.57
2018-11-25T06:20:37.442Z,18.53
2018-11-25T06:21:37.434Z,18.52
2018-11-25T06:22:37.419Z,18.60
2018-11-25T06:23:37.408Z,18.60
2018-11-25T06:24:37.400Z,18.64
2018-11-25T06:25:37.524Z,18.63
2018-11-25T06:26:37.380Z,18.70
2018-11-25T06:27:38.239Z,18.68
2018-11-25T06:28:37.358Z,18.68
2018-11-25T06:29:37.342Z,18.67
2018-11-25T06:30:37.332Z,18.76
2018-11-25T06:31:37.527Z,18.79
2018-11-25T06:32:37.310Z,18.78
2018-11-25T06:33:37.295Z,18.74
2018-11-25T06:34:37.283Z,18.78
2018-11-25T06:35:37.272Z,18.79
2018-11-25T06:36:37.263Z,18.74
2018-11-25T06:37:37.356Z,18.83
2018-11-25T06:38:37.239Z,18.88
2018-11-25T06:39:37.228Z,18.86
2018-11-25T06:40:37.227Z,18.94
2018-11-25T06:41:37.208Z,18.92
2018-11-25T06:42:37.194Z,18.98
2018-11-25T06:43:37.384Z,19.07
2018-11-25T06:44:37.174Z,19.09
2018-11-25T06:45:37.162Z,19.12
2018-11-25T06:46:37.151Z,19.16
2018-11-25T06:47:37.140Z,19.12
2018-11-25T06:48:37.135Z,19.19
2018-11-25T06:49:37.227Z,19.30
2018-11-25T06:50:37.105Z,19.29
2018-11-25T06:51:37.096Z,19.38
2018-11-25T06:52:37.088Z,19.41
2018-11-25T06:53:37.077Z,19.41
2018-11-25T06:54:37.064Z,19.48
2018-11-25T06:55:37.146Z,19.45
2018-11-25T06:56:37.041Z,19.57
2018-11-25T06:57:37.029Z,19.62
2018-11-25T06:58:37.019Z,19.64
2018-11-25T06:59:37.009Z,19.75
2018-11-25T07:00:36.998Z,19.77
2018-11-25T07:01:37.190Z,19.89
2018-11-25T07:02:36.975Z,19.85
2018-11-25T07:03:36.967Z,19.79
2018-11-25T07:04:36.956Z,19.90
2018-11-25T07:05:36.949Z,19.92
2018-11-25T07:06:36.933Z,20.00
2018-11-25T07:07:37.101Z,20.04
2018-11-25T07:08:36.910Z,20.12
2018-11-25T07:09:36.899Z,20.10
2018-11-25T07:10:36.890Z,20.12
2018-11-25T07:11:36.882Z,20.17
2018-11-25T07:12:36.865Z,20.26
2018-11-25T07:13:36.974Z,20.22
2018-11-25T07:14:36.846Z,20.32
2018-11-25T07:15:36.832Z,20.26
2018-11-25T07:16:36.823Z,20.36
2018-11-25T07:17:36.813Z,20.32
2018-11-25T07:18:36.804Z,20.42
2018-11-25T07:19:36.960Z,20.52
2018-11-25T07:20:36.781Z,20.56
2018-11-25T07:21:36.766Z,20.68
2018-11-25T07:22:36.757Z,20.70
2018-11-25T07:23:37.263Z,20.74
2018-11-25T07:24:36.735Z,20.80
2018-11-25T07:25:36.818Z,20.83
2018-11-25T07:26:39.278Z,20.82
2018-11-25T07:27:36.702Z,20.93
2018-11-25T07:28:36.690Z,20.95
2018-11-25T07:29:36.680Z,20.96
2018-11-25T07:30:36.668Z,21.01
2018-11-25T07:31:36.876Z,20.92
2018-11-25T07:32:36.647Z,20.86
2018-11-25T07:33:36.637Z,20.88
2018-11-25T07:34:36.625Z,20.93
2018-11-25T07:35:36.616Z,20.90
2018-11-25T07:36:36.603Z,21.04
2018-11-25T07:37:36.865Z,20.95
2018-11-25T07:38:36.583Z,21.00
2018-11-25T07:39:36.571Z,21.04
2018-11-25T07:40:36.561Z,21.08
2018-11-25T07:41:36.555Z,21.15
2018-11-25T07:42:36.538Z,21.20
2018-11-25T07:43:36.626Z,21.22
2018-11-25T07:44:36.517Z,21.30
2018-11-25T07:45:36.505Z,21.28
2018-11-25T07:46:36.497Z,21.33
2018-11-25T07:47:36.483Z,21.30
2018-11-25T07:48:36.474Z,21.37
2018-11-25T07:49:36.718Z,21.44
2018-11-25T07:50:36.453Z,21.48
2018-11-25T07:51:36.444Z,21.50
2018-11-25T07:52:36.430Z,21.59
2018-11-25T07:53:36.418Z,21.62
2018-11-25T07:54:36.406Z,21.63
2018-11-25T07:55:36.566Z,21.70
2018-11-25T07:56:36.386Z,21.84
2018-11-25T07:57:36.374Z,21.94
2018-11-25T07:58:36.365Z,22.03
2018-11-25T07:59:36.353Z,22.06
2018-11-25T08:00:36.342Z,22.14
2018-11-25T08:01:36.428Z,22.10
2018-11-25T08:02:41.391Z,22.19
2018-11-25T08:03:37.352Z,22.26
2018-11-25T08:04:36.299Z,22.38
2018-11-25T08:05:36.288Z,22.40
2018-11-25T08:06:36.277Z,22.44
2018-11-25T08:07:36.379Z,22.53
2018-11-25T08:08:36.255Z,22.70
2018-11-25T08:09:36.245Z,22.76
2018-11-25T08:10:36.233Z,22.88
2018-11-25T08:11:36.226Z,22.81
2018-11-25T08:12:36.211Z,22.92
2018-11-25T08:13:36.300Z,23.01
2018-11-25T08:14:36.188Z,23.18
2018-11-25T08:15:36.181Z,23.18
2018-11-25T08:16:36.167Z,23.26
2018-11-25T08:17:36.159Z,23.34
2018-11-25T08:18:36.156Z,23.45
2018-11-25T08:19:36.256Z,23.44
2018-11-25T08:20:36.124Z,23.48
2018-11-25T08:21:36.116Z,23.51
2018-11-25T08:22:36.103Z,23.55
2018-11-25T08:23:36.091Z,23.58
2018-11-25T08:24:36.083Z,23.69
2018-11-25T08:25:36.287Z,23.67
2018-11-25T08:26:36.058Z,23.76
2018-11-25T08:27:36.049Z,23.88
2018-11-25T08:28:36.037Z,23.86
2018-11-25T08:29:36.027Z,24.03
2018-11-25T08:30:36.017Z,23.94
2018-11-25T08:31:36.104Z,24.11
2018-11-25T08:32:35.995Z,24.10
2018-11-25T08:33:35.982Z,24.26
2018-11-25T08:34:35.972Z,24.46
2018-11-25T08:35:35.962Z,24.53
2018-11-25T08:36:35.949Z,24.59
2018-11-25T08:37:36.041Z,24.78
2018-11-25T08:38:35.946Z,24.81
2018-11-25T08:39:35.919Z,24.94
2018-11-25T08:40:35.908Z,25.07
2018-11-25T08:41:35.898Z,25.11
2018-11-25T08:42:35.890Z,25.24
2018-11-25T08:43:36.287Z,25.12
2018-11-25T08:44:35.871Z,25.00
2018-11-25T08:45:35.856Z,24.94
2018-11-25T08:46:35.843Z,24.82
2018-11-25T08:47:35.832Z,24.75
2018-11-25T08:48:35.821Z,24.75
2018-11-25T08:49:36.285Z,24.89
2018-11-25T08:50:35.801Z,25.03
2018-11-25T08:51:35.786Z,25.06
2018-11-25T08:52:35.778Z,25.21
2018-11-25T08:53:35.765Z,25.06
2018-11-25T08:54:35.754Z,25.07
2018-11-25T08:55:35.868Z,24.97
2018-11-25T08:56:35.732Z,24.89
2018-11-25T08:57:35.723Z,24.92
2018-11-25T08:58:35.709Z,24.86
2018-11-25T08:59:35.699Z,24.93
2018-11-25T09:00:35.688Z,24.82
2018-11-25T09:01:35.789Z,24.71
2018-11-25T09:02:35.666Z,24.61
2018-11-25T09:03:35.664Z,24.51
2018-11-25T09:04:35.644Z,24.51
2018-11-25T09:05:35.634Z,24.44
2018-11-25T09:06:35.620Z,24.44
2018-11-25T09:07:35.809Z,24.43
2018-11-25T09:08:35.600Z,24.40
2018-11-25T09:09:35.591Z,24.29
2018-11-25T09:10:35.578Z,24.21
2018-11-25T09:11:35.567Z,24.18
2018-11-25T09:12:35.559Z,24.11
2018-11-25T09:13:35.646Z,24.26
2018-11-25T09:14:35.533Z,24.21
2018-11-25T09:15:35.522Z,24.10
2018-11-25T09:16:35.513Z,24.07
2018-11-25T09:17:35.502Z,23.96
2018-11-25T09:18:35.495Z,24.10
2018-11-25T09:19:56.509Z,24.26
2018-11-25T09:20:35.470Z,24.28
2018-11-25T09:21:35.466Z,24.37
2018-11-25T09:22:35.464Z,24.55
2018-11-25T09:23:36.189Z,24.50
2018-11-25T09:24:35.424Z,24.68
2018-11-25T09:25:35.558Z,24.74
2018-11-25T09:26:35.403Z,24.84
2018-11-25T09:27:35.393Z,24.88
2018-11-25T09:28:35.381Z,24.99
2018-11-25T09:29:35.374Z,25.00
2018-11-25T09:30:35.362Z,25.03
2018-11-25T09:31:35.532Z,25.18
2018-11-25T09:32:35.339Z,25.26
2018-11-25T09:33:35.328Z,25.29
2018-11-25T09:34:35.314Z,25.33
2018-11-25T09:35:35.304Z,25.46
2018-11-25T09:36:35.301Z,25.54
2018-11-25T09:37:35.491Z,25.56
2018-11-25T09:38:35.270Z,25.68
2018-11-25T09:39:35.259Z,25.46
2018-11-25T09:40:35.248Z,25.36
2018-11-25T09:41:35.238Z,25.24
2018-11-25T09:42:35.231Z,25.09
2018-11-25T09:43:35.323Z,25.01
2018-11-25T09:44:35.205Z,24.82
2018-11-25T09:45:35.196Z,24.77
2018-11-25T09:46:42.436Z,24.62
2018-11-25T09:47:36.172Z,24.61
2018-11-25T09:48:35.160Z,24.55
2018-11-25T09:49:35.248Z,24.79
2018-11-25T09:50:35.143Z,25.07
2018-11-25T09:51:35.129Z,25.19
2018-11-25T09:52:35.117Z,25.44
2018-11-25T09:53:35.105Z,25.62
2018-11-25T09:54:35.094Z,25.76
2018-11-25T09:55:35.271Z,25.88
2018-11-25T09:56:35.077Z,25.96
2018-11-25T09:57:35.066Z,26.08
2018-11-25T09:58:35.051Z,26.19
2018-11-25T09:59:35.040Z,26.31
2018-11-25T10:00:35.029Z,26.41
2018-11-25T10:01:35.128Z,26.07
2018-11-25T10:02:35.015Z,25.85
2018-11-25T10:03:34.998Z,25.59
2018-11-25T10:04:34.983Z,25.25
2018-11-25T10:05:34.990Z,25.18
2018-11-25T10:06:34.962Z,25.07
2018-11-25T10:07:35.051Z,24.88
2018-11-25T10:08:34.941Z,24.81
2018-11-25T10:09:34.929Z,24.78
2018-11-25T10:10:35.762Z,24.62
2018-11-25T10:11:34.908Z,24.55
2018-11-25T10:12:34.896Z,24.50
2018-11-25T10:13:35.153Z,24.36
2018-11-25T10:14:34.875Z,24.50
2018-11-25T10:15:34.864Z,24.47
2018-11-25T10:16:34.853Z,24.41
2018-11-25T10:17:34.842Z,24.38
2018-11-25T10:18:34.832Z,24.25
2018-11-25T10:19:35.147Z,24.21
2018-11-25T10:20:34.808Z,24.22
2018-11-25T10:21:34.796Z,24.21
2018-11-25T10:22:34.785Z,24.13
2018-11-25T10:23:34.775Z,24.06
2018-11-25T10:24:34.764Z,24.00
2018-11-25T10:25:34.862Z,23.99
2018-11-25T10:26:34.750Z,23.92
2018-11-25T10:27:34.730Z,23.95
2018-11-25T10:28:34.720Z,23.94
2018-11-25T10:29:34.708Z,23.95
2018-11-25T10:30:34.696Z,23.85
2018-11-25T10:31:34.879Z,23.86
2018-11-25T10:32:34.675Z,23.84
2018-11-25T10:33:34.663Z,23.74
2018-11-25T10:34:34.654Z,23.76
2018-11-25T10:35:34.642Z,23.74
2018-11-25T10:36:34.632Z,23.67
2018-11-25T10:37:34.889Z,23.74
2018-11-25T10:38:34.611Z,23.67
2018-11-25T10:39:34.604Z,23.73
2018-11-25T10:40:34.588Z,23.71
2018-11-25T10:41:34.575Z,23.77
2018-11-25T10:42:34.568Z,23.76
2018-11-25T10:43:34.653Z,23.81
2018-11-25T10:44:34.542Z,23.84
2018-11-25T10:45:34.531Z,23.79
2018-11-25T10:46:34.522Z,23.77
2018-11-25T10:47:34.512Z,23.79
2018-11-25T10:48:34.508Z,23.81
2018-11-25T10:49:34.723Z,23.91
2018-11-25T10:50:34.481Z,23.85
2018-11-25T10:51:34.469Z,23.89
2018-11-25T10:52:34.458Z,23.89
2018-11-25T10:53:34.444Z,23.92
2018-11-25T10:54:34.433Z,23.94
2018-11-25T10:55:34.532Z,23.99
2018-11-25T10:56:34.412Z,23.94
2018-11-25T10:57:34.401Z,23.92
2018-11-25T10:58:34.390Z,23.82
2018-11-25T10:59:34.379Z,23.77
2018-11-25T11:00:34.368Z,23.79
2018-11-25T11:01:34.698Z,23.74
2018-11-25T11:02:34.349Z,23.73
2018-11-25T11:03:34.335Z,23.73
2018-11-25T11:04:34.327Z,23.67
2018-11-25T11:05:34.316Z,23.76
2018-11-25T11:06:34.302Z,23.76
2018-11-25T11:07:34.472Z,23.74
2018-11-25T11:08:34.280Z,23.86
2018-11-25T11:09:34.270Z,24.10
2018-11-25T11:10:34.259Z,24.61
2018-11-25T11:11:34.249Z,24.93
2018-11-25T11:12:34.243Z,25.01
2018-11-25T11:13:34.358Z,25.25
2018-11-25T11:14:34.214Z,25.78
2018-11-25T11:15:34.204Z,26.30
2018-11-25T11:16:34.192Z,26.71
2018-11-25T11:17:34.183Z,27.28
2018-11-25T11:18:34.170Z,27.60
2018-11-25T11:19:34.291Z,28.10
2018-11-25T11:20:34.150Z,28.40
2018-11-25T11:21:34.138Z,28.75
2018-11-25T11:22:34.128Z,29.18
2018-11-25T11:23:34.116Z,29.42
2018-11-25T11:24:34.108Z,29.83
2018-11-25T11:25:34.405Z,30.13
2018-11-25T11:26:34.082Z,30.58
2018-11-25T11:27:34.074Z,30.77
2018-11-25T11:28:34.064Z,30.99
2018-11-25T11:29:34.052Z,31.39
2018-11-25T11:30:34.041Z,31.59
2018-11-25T11:31:34.229Z,31.59
2018-11-25T11:32:34.021Z,31.45
2018-11-25T11:33:34.399Z,31.18
2018-11-25T11:34:34.003Z,31.08
2018-11-25T11:35:33.987Z,30.74
2018-11-25T11:36:33.980Z,30.55
2018-11-25T11:37:34.096Z,30.38
2018-11-25T11:38:33.956Z,30.16
2018-11-25T11:39:33.945Z,29.84
2018-11-25T11:40:33.935Z,29.69
2018-11-25T11:41:33.922Z,29.34
2018-11-25T11:42:33.913Z,29.27
2018-11-25T11:43:34.015Z,29.30
2018-11-25T11:44:33.891Z,29.42
2018-11-25T11:45:33.880Z,29.57
2018-11-25T11:46:33.873Z,29.35
2018-11-25T11:47:33.859Z,29.15
2018-11-25T11:48:33.847Z,28.97
2018-11-25T11:49:34.014Z,28.78
2018-11-25T11:50:33.825Z,28.60
2018-11-25T11:51:33.816Z,28.52
2018-11-25T11:52:33.807Z,28.25
2018-11-25T11:53:33.801Z,28.13
2018-11-25T11:54:33.784Z,28.10
2018-11-25T11:55:33.901Z,27.91
2018-11-25T11:56:40.183Z,27.73
2018-11-25T11:57:34.769Z,27.58
2018-11-25T11:58:33.739Z,27.44
2018-11-25T11:59:33.729Z,27.33
2018-11-25T12:00:33.717Z,27.23
2018-11-25T12:01:33.803Z,27.15
2018-11-25T12:02:33.697Z,26.92
2018-11-25T12:03:33.684Z,26.74
2018-11-25T12:04:33.674Z,26.60
2018-11-25T12:05:33.661Z,26.49
2018-11-25T12:06:33.657Z,26.49
2018-11-25T12:07:33.825Z,26.34
2018-11-25T12:08:33.642Z,26.30
2018-11-25T12:09:33.623Z,26.19
2018-11-25T12:10:33.616Z,26.13
2018-11-25T12:11:33.598Z,26.11
2018-11-25T12:12:33.585Z,26.11
2018-11-25T12:13:33.671Z,26.06
2018-11-25T12:14:33.573Z,26.11
2018-11-25T12:15:33.552Z,26.03
2018-11-25T12:16:33.542Z,26.10
2018-11-25T12:17:33.530Z,26.15
2018-11-25T12:18:33.523Z,26.16
2018-11-25T12:19:33.685Z,26.30
2018-11-25T12:20:33.505Z,26.46
2018-11-25T12:21:33.487Z,26.67
2018-11-25T12:22:33.481Z,27.16
2018-11-25T12:23:33.469Z,27.98
2018-11-25T12:24:33.457Z,28.62
2018-11-25T12:25:33.541Z,29.18
2018-11-25T12:26:33.429Z,29.44
2018-11-25T12:27:33.422Z,30.16
2018-11-25T12:28:33.411Z,30.99
2018-11-25T12:29:33.399Z,31.81
2018-11-25T12:30:33.393Z,31.92
2018-11-25T12:31:33.706Z,31.79
2018-11-25T12:32:33.368Z,32.01
2018-11-25T12:33:33.361Z,32.41
2018-11-25T12:34:33.406Z,32.60
2018-11-25T12:35:33.337Z,32.83
2018-11-25T12:36:33.326Z,33.13
2018-11-25T12:37:36.078Z,33.36
2018-11-25T12:38:33.305Z,33.75
2018-11-25T12:39:33.294Z,33.97
2018-11-25T12:40:33.285Z,34.46
2018-11-25T12:41:33.273Z,34.70
2018-11-25T12:42:33.270Z,34.55
2018-11-25T12:43:33.416Z,34.46
2018-11-25T12:44:33.242Z,34.44
2018-11-25T12:45:33.232Z,34.07
2018-11-25T12:46:33.222Z,33.77
2018-11-25T12:47:33.211Z,33.73
2018-11-25T12:48:33.200Z,34.22
2018-11-25T12:49:33.406Z,34.71
2018-11-25T12:50:33.179Z,35.32
2018-11-25T12:51:33.176Z,36.26
2018-11-25T12:52:33.158Z,37.31
2018-11-25T12:53:33.148Z,38.20
2018-11-25T12:54:33.137Z,39.03
2018-11-25T12:55:33.234Z,39.56
2018-11-25T12:56:33.117Z,39.95
2018-11-25T12:57:33.110Z,40.24
2018-11-25T12:58:33.096Z,40.34
2018-11-25T12:59:33.089Z,40.12
2018-11-25T13:00:33.080Z,39.78